sensor_id;sensor_type;location;lat;lon;timestamp;P1;durP1;ratioP1;P2;durP2;ratioP2
20415;SDS011;10367;52.202;5.996;2023-02-23T00:02:21;76.70;;;34.77;;
20415;SDS011;10367;52.202;5.996;2023-02-23T00:04:50;82.83;;;34.17;;
20415;SDS011;10367;52.202;5.996;2023-02-23T00:07:19;83.77;;;36.10;;
20415;SDS011;10367;52.202;5.996;2023-02-23T00:09:48;66.10;;;30.77;;
20415;SDS011;10367;52.202;5.996;2023-02-23T00:12:20;73.17;;;32.20;;
20415;SDS011;10367;52.202;5.996;2023-02-23T00:14:49;65.23;;;29.53;;
20415;SDS011;10367;52.202;5.996;2023-02-23T00:17:20;73.47;;;33.43;;
20415;SDS011;10367;52.202;5.996;2023-02-23T00:19:51;62.80;;;29.67;;
20415;SDS011;10367;52.202;5.996;2023-02-23T00:22:21;75.47;;;32.10;;
20415;SDS011;10367;52.202;5.996;2023-02-23T00:24:51;70.40;;;31.07;;
20415;SDS011;10367;52.202;5.996;2023-02-23T00:27:20;72.00;;;30.57;;
20415;SDS011;10367;52.202;5.996;2023-02-23T00:29:49;72.23;;;31.17;;
20415;SDS011;10367;52.202;5.996;2023-02-23T00:32:19;82.00;;;31.77;;
20415;SDS011;10367;52.202;5.996;2023-02-23T00:34:48;67.60;;;30.07;;
20415;SDS011;10367;52.202;5.996;2023-02-23T00:37:17;62.93;;;28.50;;
20415;SDS011;10367;52.202;5.996;2023-02-23T00:39:48;64.40;;;30.17;;
20415;SDS011;10367;52.202;5.996;2023-02-23T00:42:17;68.90;;;30.60;;
20415;SDS011;10367;52.202;5.996;2023-02-23T00:44:46;77.57;;;32.07;;
20415;SDS011;10367;52.202;5.996;2023-02-23T00:47:15;72.97;;;30.87;;
20415;SDS011;10367;52.202;5.996;2023-02-23T00:49:45;63.60;;;28.87;;
20415;SDS011;10367;52.202;5.996;2023-02-23T00:52:14;72.10;;;31.10;;
20415;SDS011;10367;52.202;5.996;2023-02-23T00:54:43;67.20;;;28.87;;
20415;SDS011;10367;52.202;5.996;2023-02-23T00:57:11;73.10;;;30.03;;
20415;SDS011;10367;52.202;5.996;2023-02-23T00:59:40;69.53;;;30.43;;
20415;SDS011;10367;52.202;5.996;2023-02-23T01:02:09;58.53;;;27.83;;
20415;SDS011;10367;52.202;5.996;2023-02-23T01:04:38;74.93;;;32.00;;
20415;SDS011;10367;52.202;5.996;2023-02-23T01:07:08;80.43;;;32.87;;
20415;SDS011;10367;52.202;5.996;2023-02-23T01:09:38;71.93;;;30.00;;
20415;SDS011;10367;52.202;5.996;2023-02-23T01:12:08;65.37;;;27.80;;
20415;SDS011;10367;52.202;5.996;2023-02-23T01:14:37;75.43;;;32.17;;
20415;SDS011;10367;52.202;5.996;2023-02-23T01:17:06;58.47;;;25.13;;
20415;SDS011;10367;52.202;5.996;2023-02-23T01:19:34;74.10;;;32.23;;
20415;SDS011;10367;52.202;5.996;2023-02-23T01:22:03;71.23;;;30.60;;
20415;SDS011;10367;52.202;5.996;2023-02-23T01:24:34;65.57;;;28.20;;
20415;SDS011;10367;52.202;5.996;2023-02-23T01:27:04;92.47;;;34.00;;
20415;SDS011;10367;52.202;5.996;2023-02-23T01:29:33;62.17;;;26.67;;
20415;SDS011;10367;52.202;5.996;2023-02-23T01:32:03;65.97;;;26.87;;
20415;SDS011;10367;52.202;5.996;2023-02-23T01:34:33;81.87;;;31.47;;
20415;SDS011;10367;52.202;5.996;2023-02-23T01:37:02;68.10;;;26.97;;
20415;SDS011;10367;52.202;5.996;2023-02-23T01:39:31;68.10;;;27.50;;
20415;SDS011;10367;52.202;5.996;2023-02-23T01:42:01;79.37;;;30.77;;
20415;SDS011;10367;52.202;5.996;2023-02-23T01:47:42;67.43;;;27.33;;
20415;SDS011;10367;52.202;5.996;2023-02-23T01:50:11;62.17;;;25.80;;
20415;SDS011;10367;52.202;5.996;2023-02-23T01:52:42;69.93;;;28.17;;
20415;SDS011;10367;52.202;5.996;2023-02-23T01:55:11;59.60;;;24.47;;
20415;SDS011;10367;52.202;5.996;2023-02-23T01:57:51;62.73;;;28.27;;
20415;SDS011;10367;52.202;5.996;2023-02-23T02:00:22;74.83;;;31.13;;
20415;SDS011;10367;52.202;5.996;2023-02-23T02:02:53;58.00;;;26.60;;
20415;SDS011;10367;52.202;5.996;2023-02-23T02:05:23;62.23;;;26.13;;
20415;SDS011;10367;52.202;5.996;2023-02-23T02:07:54;57.50;;;25.43;;
20415;SDS011;10367;52.202;5.996;2023-02-23T02:10:25;66.57;;;27.13;;
20415;SDS011;10367;52.202;5.996;2023-02-23T02:13:08;49.87;;;22.77;;
20415;SDS011;10367;52.202;5.996;2023-02-23T02:15:44;41.93;;;19.53;;
20415;SDS011;10367;52.202;5.996;2023-02-23T02:18:23;75.90;;;28.37;;
20415;SDS011;10367;52.202;5.996;2023-02-23T02:21:06;60.70;;;26.20;;
20415;SDS011;10367;52.202;5.996;2023-02-23T02:23:52;59.20;;;24.47;;
20415;SDS011;10367;52.202;5.996;2023-02-23T02:26:50;51.57;;;22.43;;
20415;SDS011;10367;52.202;5.996;2023-02-23T02:33:02;52.47;;;22.47;;
20415;SDS011;10367;52.202;5.996;2023-02-23T02:35:53;52.77;;;24.23;;
20415;SDS011;10367;52.202;5.996;2023-02-23T02:38:47;50.77;;;21.93;;
20415;SDS011;10367;52.202;5.996;2023-02-23T02:41:24;68.53;;;26.80;;
20415;SDS011;10367;52.202;5.996;2023-02-23T02:44:04;62.20;;;25.03;;
20415;SDS011;10367;52.202;5.996;2023-02-23T02:46:42;59.67;;;23.90;;
20415;SDS011;10367;52.202;5.996;2023-02-23T02:49:19;59.80;;;24.23;;
20415;SDS011;10367;52.202;5.996;2023-02-23T02:51:54;51.60;;;22.77;;
20415;SDS011;10367;52.202;5.996;2023-02-23T02:54:29;65.23;;;27.27;;
20415;SDS011;10367;52.202;5.996;2023-02-23T02:57:01;55.33;;;22.90;;
20415;SDS011;10367;52.202;5.996;2023-02-23T02:59:33;65.53;;;25.47;;
20415;SDS011;10367;52.202;5.996;2023-02-23T03:02:27;54.80;;;23.87;;
20415;SDS011;10367;52.202;5.996;2023-02-23T03:05:17;57.17;;;26.10;;
20415;SDS011;10367;52.202;5.996;2023-02-23T03:08:07;43.70;;;21.27;;
20415;SDS011;10367;52.202;5.996;2023-02-23T03:11:01;56.60;;;24.37;;
20415;SDS011;10367;52.202;5.996;2023-02-23T03:13:52;53.23;;;24.07;;
20415;SDS011;10367;52.202;5.996;2023-02-23T03:16:50;60.70;;;25.13;;
20415;SDS011;10367;52.202;5.996;2023-02-23T03:19:47;57.43;;;24.93;;
20415;SDS011;10367;52.202;5.996;2023-02-23T03:22:43;57.40;;;23.07;;
20415;SDS011;10367;52.202;5.996;2023-02-23T03:25:44;51.43;;;22.57;;
20415;SDS011;10367;52.202;5.996;2023-02-23T03:28:35;41.73;;;19.37;;
20415;SDS011;10367;52.202;5.996;2023-02-23T03:31:28;54.20;;;23.77;;
20415;SDS011;10367;52.202;5.996;2023-02-23T03:34:22;57.43;;;24.27;;
20415;SDS011;10367;52.202;5.996;2023-02-23T03:37:13;54.30;;;23.53;;
20415;SDS011;10367;52.202;5.996;2023-02-23T03:40:05;51.40;;;22.77;;
20415;SDS011;10367;52.202;5.996;2023-02-23T03:42:56;60.27;;;25.10;;
20415;SDS011;10367;52.202;5.996;2023-02-23T03:45:47;50.23;;;22.87;;
20415;SDS011;10367;52.202;5.996;2023-02-23T03:48:34;58.70;;;24.53;;
20415;SDS011;10367;52.202;5.996;2023-02-23T03:51:22;66.77;;;26.60;;
20415;SDS011;10367;52.202;5.996;2023-02-23T03:54:12;66.00;;;26.93;;
20415;SDS011;10367;52.202;5.996;2023-02-23T03:57:02;54.40;;;24.03;;
20415;SDS011;10367;52.202;5.996;2023-02-23T03:59:52;64.57;;;25.03;;
20415;SDS011;10367;52.202;5.996;2023-02-23T04:02:43;69.13;;;27.17;;
20415;SDS011;10367;52.202;5.996;2023-02-23T04:05:34;71.17;;;27.43;;
20415;SDS011;10367;52.202;5.996;2023-02-23T04:08:24;54.20;;;23.63;;
20415;SDS011;10367;52.202;5.996;2023-02-23T04:11:17;56.97;;;24.73;;
20415;SDS011;10367;52.202;5.996;2023-02-23T04:14:09;58.50;;;24.73;;
20415;SDS011;10367;52.202;5.996;2023-02-23T04:16:43;60.27;;;26.20;;
20415;SDS011;10367;52.202;5.996;2023-02-23T04:19:12;54.37;;;23.03;;
20415;SDS011;10367;52.202;5.996;2023-02-23T04:21:41;66.13;;;26.47;;
20415;SDS011;10367;52.202;5.996;2023-02-23T04:24:10;56.07;;;23.67;;
20415;SDS011;10367;52.202;5.996;2023-02-23T04:26:39;61.00;;;26.53;;
20415;SDS011;10367;52.202;5.996;2023-02-23T04:29:09;52.87;;;23.97;;
20415;SDS011;10367;52.202;5.996;2023-02-23T04:31:38;64.83;;;27.17;;
20415;SDS011;10367;52.202;5.996;2023-02-23T04:34:07;64.93;;;27.40;;
20415;SDS011;10367;52.202;5.996;2023-02-23T04:36:37;68.00;;;27.87;;
20415;SDS011;10367;52.202;5.996;2023-02-23T04:39:06;66.63;;;26.37;;
20415;SDS011;10367;52.202;5.996;2023-02-23T04:41:35;70.40;;;28.73;;
20415;SDS011;10367;52.202;5.996;2023-02-23T04:44:03;71.07;;;27.33;;
20415;SDS011;10367;52.202;5.996;2023-02-23T04:46:32;74.67;;;29.90;;
20415;SDS011;10367;52.202;5.996;2023-02-23T04:49:01;49.67;;;24.07;;
20415;SDS011;10367;52.202;5.996;2023-02-23T04:51:30;65.97;;;26.57;;
20415;SDS011;10367;52.202;5.996;2023-02-23T04:54:01;64.23;;;25.33;;
20415;SDS011;10367;52.202;5.996;2023-02-23T04:56:31;62.53;;;27.17;;
20415;SDS011;10367;52.202;5.996;2023-02-23T04:59:00;63.17;;;26.70;;
20415;SDS011;10367;52.202;5.996;2023-02-23T05:01:29;58.77;;;25.03;;
20415;SDS011;10367;52.202;5.996;2023-02-23T05:03:58;64.27;;;25.97;;
20415;SDS011;10367;52.202;5.996;2023-02-23T05:06:27;63.53;;;26.37;;
20415;SDS011;10367;52.202;5.996;2023-02-23T05:08:56;58.03;;;25.17;;
20415;SDS011;10367;52.202;5.996;2023-02-23T05:11:26;61.40;;;24.23;;
20415;SDS011;10367;52.202;5.996;2023-02-23T05:13:55;67.90;;;28.47;;
20415;SDS011;10367;52.202;5.996;2023-02-23T05:16:23;75.23;;;28.23;;
20415;SDS011;10367;52.202;5.996;2023-02-23T05:18:52;60.03;;;26.27;;
20415;SDS011;10367;52.202;5.996;2023-02-23T05:21:21;59.67;;;25.37;;
20415;SDS011;10367;52.202;5.996;2023-02-23T05:27:00;54.93;;;22.73;;
20415;SDS011;10367;52.202;5.996;2023-02-23T05:29:28;52.87;;;23.30;;
20415;SDS011;10367;52.202;5.996;2023-02-23T05:31:57;69.83;;;27.10;;
20415;SDS011;10367;52.202;5.996;2023-02-23T05:34:26;68.47;;;25.87;;
20415;SDS011;10367;52.202;5.996;2023-02-23T05:36:55;73.17;;;26.77;;
20415;SDS011;10367;52.202;5.996;2023-02-23T05:39:24;58.07;;;24.63;;
20415;SDS011;10367;52.202;5.996;2023-02-23T05:41:54;65.50;;;27.33;;
20415;SDS011;10367;52.202;5.996;2023-02-23T05:44:24;72.70;;;29.80;;
20415;SDS011;10367;52.202;5.996;2023-02-23T05:46:54;81.77;;;29.37;;
20415;SDS011;10367;52.202;5.996;2023-02-23T05:49:23;74.73;;;27.33;;
20415;SDS011;10367;52.202;5.996;2023-02-23T05:51:52;68.67;;;28.57;;
20415;SDS011;10367;52.202;5.996;2023-02-23T05:54:20;62.40;;;25.87;;
20415;SDS011;10367;52.202;5.996;2023-02-23T05:56:49;80.03;;;29.37;;
20415;SDS011;10367;52.202;5.996;2023-02-23T05:59:17;69.90;;;27.33;;
20415;SDS011;10367;52.202;5.996;2023-02-23T06:01:48;68.73;;;27.83;;
20415;SDS011;10367;52.202;5.996;2023-02-23T06:04:16;76.47;;;29.47;;
20415;SDS011;10367;52.202;5.996;2023-02-23T06:06:47;68.87;;;27.53;;
20415;SDS011;10367;52.202;5.996;2023-02-23T06:09:16;61.73;;;24.97;;
20415;SDS011;10367;52.202;5.996;2023-02-23T06:11:45;64.83;;;26.33;;
20415;SDS011;10367;52.202;5.996;2023-02-23T06:14:14;65.07;;;26.73;;
20415;SDS011;10367;52.202;5.996;2023-02-23T06:16:43;69.67;;;28.27;;
20415;SDS011;10367;52.202;5.996;2023-02-23T06:19:15;61.97;;;27.73;;
20415;SDS011;10367;52.202;5.996;2023-02-23T06:21:44;61.50;;;24.23;;
20415;SDS011;10367;52.202;5.996;2023-02-23T06:24:13;62.03;;;24.37;;
20415;SDS011;10367;52.202;5.996;2023-02-23T06:26:41;57.70;;;23.13;;
20415;SDS011;10367;52.202;5.996;2023-02-23T06:29:10;67.03;;;26.10;;
20415;SDS011;10367;52.202;5.996;2023-02-23T06:31:39;70.20;;;27.10;;
20415;SDS011;10367;52.202;5.996;2023-02-23T06:34:08;66.63;;;26.17;;
20415;SDS011;10367;52.202;5.996;2023-02-23T06:36:39;68.20;;;25.50;;
20415;SDS011;10367;52.202;5.996;2023-02-23T06:39:09;59.57;;;24.20;;
20415;SDS011;10367;52.202;5.996;2023-02-23T06:41:38;68.47;;;26.67;;
20415;SDS011;10367;52.202;5.996;2023-02-23T06:44:07;65.80;;;26.70;;
20415;SDS011;10367;52.202;5.996;2023-02-23T06:46:35;67.50;;;28.73;;
20415;SDS011;10367;52.202;5.996;2023-02-23T06:49:04;59.93;;;23.83;;
20415;SDS011;10367;52.202;5.996;2023-02-23T06:51:33;72.70;;;28.37;;
20415;SDS011;10367;52.202;5.996;2023-02-23T06:54:03;52.07;;;22.57;;
20415;SDS011;10367;52.202;5.996;2023-02-23T06:56:32;75.77;;;29.07;;
20415;SDS011;10367;52.202;5.996;2023-02-23T06:59:01;75.00;;;26.87;;
20415;SDS011;10367;52.202;5.996;2023-02-23T07:01:30;62.13;;;25.90;;
20415;SDS011;10367;52.202;5.996;2023-02-23T07:03:58;63.80;;;24.73;;
20415;SDS011;10367;52.202;5.996;2023-02-23T07:06:27;68.53;;;27.90;;
20415;SDS011;10367;52.202;5.996;2023-02-23T07:08:57;75.17;;;27.47;;
20415;SDS011;10367;52.202;5.996;2023-02-23T07:11:27;75.43;;;27.83;;
20415;SDS011;10367;52.202;5.996;2023-02-23T07:13:56;65.53;;;24.97;;
20415;SDS011;10367;52.202;5.996;2023-02-23T07:16:25;58.47;;;22.90;;
20415;SDS011;10367;52.202;5.996;2023-02-23T07:18:54;51.23;;;21.87;;
20415;SDS011;10367;52.202;5.996;2023-02-23T07:21:23;66.37;;;25.27;;
20415;SDS011;10367;52.202;5.996;2023-02-23T07:23:51;49.27;;;21.80;;
20415;SDS011;10367;52.202;5.996;2023-02-23T07:26:20;65.23;;;25.03;;
20415;SDS011;10367;52.202;5.996;2023-02-23T07:28:50;50.63;;;22.63;;
20415;SDS011;10367;52.202;5.996;2023-02-23T07:31:20;69.40;;;26.20;;
20415;SDS011;10367;52.202;5.996;2023-02-23T07:33:48;55.07;;;22.33;;
20415;SDS011;10367;52.202;5.996;2023-02-23T07:36:18;55.83;;;23.27;;
20415;SDS011;10367;52.202;5.996;2023-02-23T07:38:47;49.97;;;21.43;;
20415;SDS011;10367;52.202;5.996;2023-02-23T07:41:16;68.17;;;26.27;;
20415;SDS011;10367;52.202;5.996;2023-02-23T07:43:45;46.97;;;21.37;;
20415;SDS011;10367;52.202;5.996;2023-02-23T07:46:15;56.40;;;23.57;;
20415;SDS011;10367;52.202;5.996;2023-02-23T07:48:44;50.83;;;23.13;;
20415;SDS011;10367;52.202;5.996;2023-02-23T07:51:13;58.33;;;24.50;;
20415;SDS011;10367;52.202;5.996;2023-02-23T07:53:43;68.23;;;26.03;;
20415;SDS011;10367;52.202;5.996;2023-02-23T07:56:12;54.37;;;23.03;;
20415;SDS011;10367;52.202;5.996;2023-02-23T07:58:41;56.97;;;22.93;;
20415;SDS011;10367;52.202;5.996;2023-02-23T08:01:11;52.90;;;21.27;;
20415;SDS011;10367;52.202;5.996;2023-02-23T08:03:42;50.20;;;22.57;;
20415;SDS011;10367;52.202;5.996;2023-02-23T08:06:15;67.03;;;25.53;;
20415;SDS011;10367;52.202;5.996;2023-02-23T08:08:45;53.00;;;20.83;;
20415;SDS011;10367;52.202;5.996;2023-02-23T08:11:13;55.23;;;22.90;;
20415;SDS011;10367;52.202;5.996;2023-02-23T08:13:43;51.63;;;22.40;;
20415;SDS011;10367;52.202;5.996;2023-02-23T08:16:11;63.77;;;25.63;;
20415;SDS011;10367;52.202;5.996;2023-02-23T08:18:42;55.80;;;22.50;;
20415;SDS011;10367;52.202;5.996;2023-02-23T08:21:10;56.63;;;22.93;;
20415;SDS011;10367;52.202;5.996;2023-02-23T08:23:39;60.63;;;25.57;;
20415;SDS011;10367;52.202;5.996;2023-02-23T08:26:08;64.00;;;23.37;;
20415;SDS011;10367;52.202;5.996;2023-02-23T08:28:37;70.60;;;25.10;;
20415;SDS011;10367;52.202;5.996;2023-02-23T08:31:08;55.17;;;23.03;;
20415;SDS011;10367;52.202;5.996;2023-02-23T08:33:37;62.57;;;25.13;;
20415;SDS011;10367;52.202;5.996;2023-02-23T08:36:08;63.83;;;25.63;;
20415;SDS011;10367;52.202;5.996;2023-02-23T08:38:37;63.27;;;23.90;;
20415;SDS011;10367;52.202;5.996;2023-02-23T08:41:05;65.10;;;25.27;;
20415;SDS011;10367;52.202;5.996;2023-02-23T08:43:34;66.93;;;26.63;;
20415;SDS011;10367;52.202;5.996;2023-02-23T08:46:05;55.10;;;23.33;;
20415;SDS011;10367;52.202;5.996;2023-02-23T08:48:33;61.77;;;25.97;;
20415;SDS011;10367;52.202;5.996;2023-02-23T08:51:04;62.90;;;25.23;;
20415;SDS011;10367;52.202;5.996;2023-02-23T08:53:35;66.23;;;27.00;;
20415;SDS011;10367;52.202;5.996;2023-02-23T08:56:04;56.73;;;22.97;;
20415;SDS011;10367;52.202;5.996;2023-02-23T08:58:34;67.53;;;25.97;;
20415;SDS011;10367;52.202;5.996;2023-02-23T09:01:03;60.20;;;23.60;;
20415;SDS011;10367;52.202;5.996;2023-02-23T09:03:32;57.40;;;24.00;;
20415;SDS011;10367;52.202;5.996;2023-02-23T09:06:06;61.73;;;24.20;;
20415;SDS011;10367;52.202;5.996;2023-02-23T09:08:37;58.97;;;23.90;;
20415;SDS011;10367;52.202;5.996;2023-02-23T09:11:06;61.97;;;23.33;;
20415;SDS011;10367;52.202;5.996;2023-02-23T09:13:34;56.57;;;24.07;;
20415;SDS011;10367;52.202;5.996;2023-02-23T09:16:03;58.30;;;22.23;;
20415;SDS011;10367;52.202;5.996;2023-02-23T09:18:33;57.63;;;24.50;;
20415;SDS011;10367;52.202;5.996;2023-02-23T09:21:02;68.13;;;24.53;;
20415;SDS011;10367;52.202;5.996;2023-02-23T09:23:34;66.33;;;25.70;;
20415;SDS011;10367;52.202;5.996;2023-02-23T09:26:05;58.50;;;23.47;;
20415;SDS011;10367;52.202;5.996;2023-02-23T09:28:35;69.10;;;26.17;;
20415;SDS011;10367;52.202;5.996;2023-02-23T09:31:07;55.07;;;24.03;;
20415;SDS011;10367;52.202;5.996;2023-02-23T09:33:37;57.10;;;23.30;;
20415;SDS011;10367;52.202;5.996;2023-02-23T09:36:06;58.07;;;24.37;;
20415;SDS011;10367;52.202;5.996;2023-02-23T09:38:38;59.97;;;23.63;;
20415;SDS011;10367;52.202;5.996;2023-02-23T09:41:15;58.70;;;24.23;;
20415;SDS011;10367;52.202;5.996;2023-02-23T09:44:05;60.03;;;23.83;;
20415;SDS011;10367;52.202;5.996;2023-02-23T09:46:46;49.00;;;21.87;;
20415;SDS011;10367;52.202;5.996;2023-02-23T09:49:22;51.90;;;22.57;;
20415;SDS011;10367;52.202;5.996;2023-02-23T09:51:55;54.43;;;23.67;;
20415;SDS011;10367;52.202;5.996;2023-02-23T09:54:27;67.50;;;26.07;;
20415;SDS011;10367;52.202;5.996;2023-02-23T09:57:00;52.53;;;22.80;;
20415;SDS011;10367;52.202;5.996;2023-02-23T09:59:32;58.43;;;24.87;;
20415;SDS011;10367;52.202;5.996;2023-02-23T10:02:04;50.60;;;23.00;;
20415;SDS011;10367;52.202;5.996;2023-02-23T10:04:45;61.60;;;24.90;;
20415;SDS011;10367;52.202;5.996;2023-02-23T10:07:18;51.30;;;22.90;;
20415;SDS011;10367;52.202;5.996;2023-02-23T10:09:57;44.90;;;21.83;;
20415;SDS011;10367;52.202;5.996;2023-02-23T10:12:37;59.30;;;25.40;;
20415;SDS011;10367;52.202;5.996;2023-02-23T10:15:19;50.50;;;24.23;;
20415;SDS011;10367;52.202;5.996;2023-02-23T10:17:58;44.93;;;21.07;;
20415;SDS011;10367;52.202;5.996;2023-02-23T10:20:33;55.27;;;23.80;;
20415;SDS011;10367;52.202;5.996;2023-02-23T10:23:08;52.43;;;22.57;;
20415;SDS011;10367;52.202;5.996;2023-02-23T10:25:42;59.53;;;24.13;;
20415;SDS011;10367;52.202;5.996;2023-02-23T10:28:16;48.63;;;23.13;;
20415;SDS011;10367;52.202;5.996;2023-02-23T10:30:46;56.07;;;23.37;;
20415;SDS011;10367;52.202;5.996;2023-02-23T10:33:19;47.87;;;21.17;;
20415;SDS011;10367;52.202;5.996;2023-02-23T10:35:51;56.87;;;23.07;;
20415;SDS011;10367;52.202;5.996;2023-02-23T10:38:39;61.90;;;24.17;;
20415;SDS011;10367;52.202;5.996;2023-02-23T10:41:07;53.70;;;21.83;;
20415;SDS011;10367;52.202;5.996;2023-02-23T10:43:41;56.73;;;23.17;;
20415;SDS011;10367;52.202;5.996;2023-02-23T10:46:10;45.30;;;20.23;;
20415;SDS011;10367;52.202;5.996;2023-02-23T10:48:48;63.97;;;23.53;;
20415;SDS011;10367;52.202;5.996;2023-02-23T10:51:23;54.63;;;23.77;;
20415;SDS011;10367;52.202;5.996;2023-02-23T10:53:56;53.73;;;22.33;;
20415;SDS011;10367;52.202;5.996;2023-02-23T10:56:33;54.30;;;23.13;;
20415;SDS011;10367;52.202;5.996;2023-02-23T10:59:15;43.67;;;20.23;;
20415;SDS011;10367;52.202;5.996;2023-02-23T11:01:46;50.63;;;22.87;;
20415;SDS011;10367;52.202;5.996;2023-02-23T11:04:28;50.10;;;20.93;;
20415;SDS011;10367;52.202;5.996;2023-02-23T11:07:05;54.20;;;22.63;;
20415;SDS011;10367;52.202;5.996;2023-02-23T11:09:36;53.57;;;24.07;;
20415;SDS011;10367;52.202;5.996;2023-02-23T11:12:16;50.80;;;22.50;;
20415;SDS011;10367;52.202;5.996;2023-02-23T11:14:50;49.97;;;21.80;;
20415;SDS011;10367;52.202;5.996;2023-02-23T11:17:24;45.90;;;21.90;;
20415;SDS011;10367;52.202;5.996;2023-02-23T11:19:59;46.70;;;20.40;;
20415;SDS011;10367;52.202;5.996;2023-02-23T11:22:31;56.63;;;23.87;;
20415;SDS011;10367;52.202;5.996;2023-02-23T11:25:02;45.93;;;20.43;;
20415;SDS011;10367;52.202;5.996;2023-02-23T11:27:44;48.10;;;20.70;;
20415;SDS011;10367;52.202;5.996;2023-02-23T11:30:20;52.03;;;21.93;;
20415;SDS011;10367;52.202;5.996;2023-02-23T11:32:50;47.03;;;21.20;;
20415;SDS011;10367;52.202;5.996;2023-02-23T11:35:26;50.80;;;20.53;;
20415;SDS011;10367;52.202;5.996;2023-02-23T11:37:57;46.70;;;19.40;;
20415;SDS011;10367;52.202;5.996;2023-02-23T11:40:27;49.47;;;21.33;;
20415;SDS011;10367;52.202;5.996;2023-02-23T11:43:05;58.53;;;23.50;;
20415;SDS011;10367;52.202;5.996;2023-02-23T11:45:38;51.30;;;21.63;;
20415;SDS011;10367;52.202;5.996;2023-02-23T11:48:18;41.27;;;19.30;;
20415;SDS011;10367;52.202;5.996;2023-02-23T11:50:49;40.33;;;18.97;;
20415;SDS011;10367;52.202;5.996;2023-02-23T11:53:22;46.20;;;21.70;;
20415;SDS011;10367;52.202;5.996;2023-02-23T11:55:57;42.63;;;20.03;;
20415;SDS011;10367;52.202;5.996;2023-02-23T11:58:36;52.30;;;21.73;;
20415;SDS011;10367;52.202;5.996;2023-02-23T12:01:08;47.73;;;20.07;;
20415;SDS011;10367;52.202;5.996;2023-02-23T12:03:43;42.07;;;19.13;;
20415;SDS011;10367;52.202;5.996;2023-02-23T12:06:24;42.97;;;18.87;;
20415;SDS011;10367;52.202;5.996;2023-02-23T12:08:56;49.43;;;21.07;;
20415;SDS011;10367;52.202;5.996;2023-02-23T12:11:32;42.87;;;19.50;;
20415;SDS011;10367;52.202;5.996;2023-02-23T12:14:06;45.47;;;19.23;;
20415;SDS011;10367;52.202;5.996;2023-02-23T12:16:43;53.67;;;21.43;;
20415;SDS011;10367;52.202;5.996;2023-02-23T12:19:20;42.67;;;19.10;;
20415;SDS011;10367;52.202;5.996;2023-02-23T12:21:57;39.50;;;16.67;;
20415;SDS011;10367;52.202;5.996;2023-02-23T12:24:34;39.63;;;18.50;;
20415;SDS011;10367;52.202;5.996;2023-02-23T12:27:09;47.17;;;18.80;;
20415;SDS011;10367;52.202;5.996;2023-02-23T12:29:43;44.40;;;16.97;;
20415;SDS011;10367;52.202;5.996;2023-02-23T12:32:29;41.53;;;17.60;;
20415;SDS011;10367;52.202;5.996;2023-02-23T12:35:10;46.50;;;19.07;;
20415;SDS011;10367;52.202;5.996;2023-02-23T12:37:42;54.87;;;20.33;;
20415;SDS011;10367;52.202;5.996;2023-02-23T12:40:16;48.40;;;19.57;;
20415;SDS011;10367;52.202;5.996;2023-02-23T12:42:50;45.17;;;20.47;;
20415;SDS011;10367;52.202;5.996;2023-02-23T12:45:27;48.50;;;19.07;;
20415;SDS011;10367;52.202;5.996;2023-02-23T12:48:07;43.53;;;18.13;;
20415;SDS011;10367;52.202;5.996;2023-02-23T12:50:43;43.30;;;19.40;;
20415;SDS011;10367;52.202;5.996;2023-02-23T12:53:19;42.50;;;18.17;;
20415;SDS011;10367;52.202;5.996;2023-02-23T12:55:59;42.73;;;18.60;;
20415;SDS011;10367;52.202;5.996;2023-02-23T12:58:40;54.33;;;20.67;;
20415;SDS011;10367;52.202;5.996;2023-02-23T13:01:18;40.13;;;16.80;;
20415;SDS011;10367;52.202;5.996;2023-02-23T13:03:55;32.90;;;16.57;;
20415;SDS011;10367;52.202;5.996;2023-02-23T13:06:37;44.30;;;18.90;;
20415;SDS011;10367;52.202;5.996;2023-02-23T13:09:21;33.70;;;16.63;;
20415;SDS011;10367;52.202;5.996;2023-02-23T13:12:10;36.50;;;17.37;;
20415;SDS011;10367;52.202;5.996;2023-02-23T13:14:48;38.03;;;16.50;;
20415;SDS011;10367;52.202;5.996;2023-02-23T13:17:28;33.50;;;16.07;;
20415;SDS011;10367;52.202;5.996;2023-02-23T13:20:06;36.57;;;16.13;;
20415;SDS011;10367;52.202;5.996;2023-02-23T13:22:44;40.67;;;16.27;;
20415;SDS011;10367;52.202;5.996;2023-02-23T13:25:24;40.00;;;17.57;;
20415;SDS011;10367;52.202;5.996;2023-02-23T13:28:02;30.53;;;15.27;;
20415;SDS011;10367;52.202;5.996;2023-02-23T13:30:33;42.83;;;19.13;;
20415;SDS011;10367;52.202;5.996;2023-02-23T13:33:11;37.00;;;16.00;;
20415;SDS011;10367;52.202;5.996;2023-02-23T13:35:47;35.60;;;16.37;;
20415;SDS011;10367;52.202;5.996;2023-02-23T13:38:17;30.80;;;15.13;;
20415;SDS011;10367;52.202;5.996;2023-02-23T13:40:51;31.40;;;16.10;;
20415;SDS011;10367;52.202;5.996;2023-02-23T13:43:26;34.30;;;16.23;;
20415;SDS011;10367;52.202;5.996;2023-02-23T13:46:04;32.63;;;16.73;;
20415;SDS011;10367;52.202;5.996;2023-02-23T13:48:44;42.43;;;16.67;;
20415;SDS011;10367;52.202;5.996;2023-02-23T13:51:33;34.23;;;16.90;;
20415;SDS011;10367;52.202;5.996;2023-02-23T13:54:20;33.97;;;16.70;;
20415;SDS011;10367;52.202;5.996;2023-02-23T13:56:53;32.90;;;15.90;;
20415;SDS011;10367;52.202;5.996;2023-02-23T13:59:23;32.60;;;15.30;;
20415;SDS011;10367;52.202;5.996;2023-02-23T14:01:55;28.90;;;15.00;;
20415;SDS011;10367;52.202;5.996;2023-02-23T14:04:33;33.30;;;16.77;;
20415;SDS011;10367;52.202;5.996;2023-02-23T14:07:13;35.00;;;16.60;;
20415;SDS011;10367;52.202;5.996;2023-02-23T14:09:50;40.17;;;17.53;;
20415;SDS011;10367;52.202;5.996;2023-02-23T14:12:23;38.23;;;16.20;;
20415;SDS011;10367;52.202;5.996;2023-02-23T14:14:53;41.23;;;17.80;;
20415;SDS011;10367;52.202;5.996;2023-02-23T14:17:38;28.00;;;14.93;;
20415;SDS011;10367;52.202;5.996;2023-02-23T14:20:19;27.60;;;14.83;;
20415;SDS011;10367;52.202;5.996;2023-02-23T14:29:21;34.60;;;15.63;;
20415;SDS011;10367;52.202;5.996;2023-02-23T14:31:54;23.33;;;13.50;;
20415;SDS011;10367;52.202;5.996;2023-02-23T14:37:22;26.30;;;13.70;;
20415;SDS011;10367;52.202;5.996;2023-02-23T14:39:54;29.00;;;15.47;;
20415;SDS011;10367;52.202;5.996;2023-02-23T14:42:27;28.03;;;15.33;;
20415;SDS011;10367;52.202;5.996;2023-02-23T14:44:56;28.73;;;14.23;;
20415;SDS011;10367;52.202;5.996;2023-02-23T14:47:40;32.20;;;14.03;;
20415;SDS011;10367;52.202;5.996;2023-02-23T14:50:14;23.67;;;13.50;;
20415;SDS011;10367;52.202;5.996;2023-02-23T14:52:50;34.40;;;15.97;;
20415;SDS011;10367;52.202;5.996;2023-02-23T14:55:23;27.87;;;14.37;;
20415;SDS011;10367;52.202;5.996;2023-02-23T14:57:56;27.73;;;14.87;;
20415;SDS011;10367;52.202;5.996;2023-02-23T15:00:26;28.17;;;13.83;;
20415;SDS011;10367;52.202;5.996;2023-02-23T15:02:58;35.10;;;14.93;;
20415;SDS011;10367;52.202;5.996;2023-02-23T15:05:30;22.53;;;13.57;;
20415;SDS011;10367;52.202;5.996;2023-02-23T15:08:01;30.87;;;14.63;;
20415;SDS011;10367;52.202;5.996;2023-02-23T15:10:34;43.40;;;17.17;;
20415;SDS011;10367;52.202;5.996;2023-02-23T15:13:08;35.33;;;14.97;;
20415;SDS011;10367;52.202;5.996;2023-02-23T15:15:41;31.23;;;15.73;;
20415;SDS011;10367;52.202;5.996;2023-02-23T15:18:15;35.03;;;15.20;;
20415;SDS011;10367;52.202;5.996;2023-02-23T15:20:48;34.00;;;15.83;;